Time;durP1;ratioP1;P1;durP2;ratioP2;P2;SDS_P1;SDS_P2;PMS_P1;PMS_P2;Temp;Humidity;BMP_temperature;BMP_pressure;BME280_temperature;BME280_humidity;BME280_pressure;Samples;Min_cycle;Max_cycle;Signal;HPM_P1;HPM_P2
2021/12/24 00:00:12;;;;;;;30.45;9.30;;;9.50;99.90;;;;;;5067660;28;20031;-77
2021/12/24 00:02:38;;;;;;;19.20;8.82;;;9.50;99.90;;;;;;5067934;28;20055;-79
2021/12/24 00:05:06;;;;;;;11.98;7.43;;;9.40;99.90;;;;;;5067438;28;20047;-77
2021/12/24 00:07:32;;;;;;;22.15;7.90;;;9.40;99.90;;;;;;5067814;28;20029;-76
2021/12/24 00:09:58;;;;;;;22.83;8.32;;;9.40;99.90;;;;;;5066267;28;20506;-78
2021/12/24 00:12:27;;;;;;;19.90;7.90;;;9.30;99.90;;;;;;5067822;28;20032;-76
2021/12/24 00:14:57;;;;;;;19.60;7.22;;;9.30;99.90;;;;;;5067732;28;20036;-76
2021/12/24 00:17:29;;;;;;;14.05;7.53;;;9.30;99.90;;;;;;5066521;28;20047;-77
2021/12/24 00:36:08;;;;;;;17.13;6.40;;;8.90;99.90;;;;;;5067758;28;20413;-77
2021/12/24 00:38:34;;;;;;;33.85;7.53;;;8.80;99.90;;;;;;5066313;28;20024;-77
2021/12/24 00:41:00;;;;;;;21.30;7.53;;;8.70;99.90;;;;;;5067521;28;20028;-77
2021/12/24 00:43:26;;;;;;;18.23;6.38;;;8.60;99.90;;;;;;5067156;28;20363;-78
2021/12/24 00:45:51;;;;;;;14.35;6.50;;;8.60;99.90;;;;;;5065682;28;20039;-78
2021/12/24 00:48:19;;;;;;;15.27;5.68;;;8.50;99.90;;;;;;5066851;28;20060;-78
2021/12/24 00:51:19;;;;;;;14.15;5.40;;;8.40;99.90;;;;;;5067539;28;20033;-80
2021/12/24 00:56:09;;;;;;;19.23;7.10;;;8.20;99.90;;;;;;5070448;28;20466;-79
2021/12/24 00:58:36;;;;;;;19.88;7.35;;;8.10;99.90;;;;;;5071463;28;20099;-78
2021/12/24 01:01:03;;;;;;;18.50;7.82;;;8.10;99.90;;;;;;5069898;28;20036;-78
2021/12/24 01:03:29;;;;;;;16.63;6.50;;;8.10;99.90;;;;;;5070065;28;20035;-78
2021/12/24 01:05:54;;;;;;;17.90;5.72;;;8.10;99.90;;;;;;5071077;28;20056;-77
2021/12/24 01:08:20;;;;;;;15.82;6.70;;;8.00;99.90;;;;;;5071255;28;20411;-78
2021/12/24 01:10:52;;;;;;;14.10;5.68;;;7.90;99.90;;;;;;5071295;28;20033;-77
2021/12/24 01:13:18;;;;;;;13.82;5.93;;;7.90;99.90;;;;;;5071141;28;20478;-78
2021/12/24 01:16:24;;;;;;;7.65;5.75;;;7.80;99.90;;;;;;5069568;28;20029;-76
2021/12/24 01:26:14;;;;;;;20.90;9.23;;;7.80;99.90;;;;;;5070847;28;20127;-77
2021/12/24 01:44:46;;;;;;;11.30;5.60;;;7.40;99.90;;;;;;5070671;28;20561;-78
2021/12/24 01:47:12;;;;;;;6.00;4.93;;;7.30;99.90;;;;;;5070476;28;20300;-77
2021/12/24 01:49:38;;;;;;;18.15;6.22;;;7.30;99.90;;;;;;5070346;28;20105;-76
2021/12/24 01:52:04;;;;;;;12.02;5.53;;;7.20;99.90;;;;;;5070379;28;20024;-77
2021/12/24 01:54:30;;;;;;;14.85;6.53;;;7.20;99.90;;;;;;5068952;28;20409;-77
2021/12/24 01:56:56;;;;;;;14.15;5.50;;;7.20;99.90;;;;;;5070348;28;20094;-76
2021/12/24 01:59:22;;;;;;;8.77;4.55;;;7.10;99.90;;;;;;5070309;28;20029;-76
2021/12/24 02:01:49;;;;;;;12.30;5.20;;;7.00;99.90;;;;;;5068943;28;20039;-76
2021/12/24 02:04:16;;;;;;;7.95;4.80;;;7.00;99.90;;;;;;5069953;28;20131;-76
2021/12/24 02:06:42;;;;;;;13.20;4.80;;;7.00;99.90;;;;;;5068805;28;20484;-75
2021/12/24 02:09:09;;;;;;;7.72;4.90;;;7.00;99.90;;;;;;5070234;28;20055;-79
2021/12/24 02:11:38;;;;;;;14.13;4.65;;;7.10;99.90;;;;;;5069960;28;20399;-76
2021/12/24 02:14:13;;;;;;;7.63;4.75;;;7.10;99.90;;;;;;5070227;28;20035;-78
2021/12/24 02:17:16;;;;;;;11.70;5.22;;;7.10;99.90;;;;;;5069936;28;20486;-77
2021/12/24 02:30:40;;;;;;;17.58;6.47;;;7.10;99.90;;;;;;5069844;28;20395;-75
2021/12/24 02:33:06;;;;;;;14.15;5.95;;;7.10;99.90;;;;;;5069697;28;20090;-78
2021/12/24 02:35:33;;;;;;;10.55;6.13;;;7.10;99.90;;;;;;5069613;28;20035;-77
2021/12/24 02:37:59;;;;;;;10.32;5.95;;;7.20;99.90;;;;;;5069684;28;20412;-77
2021/12/24 02:40:26;;;;;;;13.20;6.30;;;7.20;99.90;;;;;;5069370;28;20067;-79
2021/12/24 02:42:55;;;;;;;8.38;5.40;;;7.20;99.90;;;;;;5069369;28;20060;-79
2021/12/24 02:45:22;;;;;;;15.45;4.80;;;7.30;99.90;;;;;;5069576;28;20040;-76
2021/12/24 02:48:10;;;;;;;7.78;4.10;;;7.20;99.90;;;;;;5069337;28;20414;-77
2021/12/24 02:56:08;;;;;;;12.05;4.90;;;7.00;99.90;;;;;;5068326;28;20512;-76
2021/12/24 02:58:46;;;;;;;11.38;4.90;;;7.00;99.90;;;;;;5069225;28;20052;-77
2021/12/24 03:01:14;;;;;;;8.15;4.45;;;7.00;99.90;;;;;;5069003;28;20024;-76
2021/12/24 03:03:40;;;;;;;11.75;4.72;;;7.00;99.90;;;;;;5067640;28;20028;-77
2021/12/24 03:06:06;;;;;;;11.07;5.30;;;6.90;99.90;;;;;;5067519;28;20388;-77
2021/12/24 03:08:33;;;;;;;9.63;5.18;;;6.90;99.90;;;;;;5068952;28;20107;-78
2021/12/24 03:10:59;;;;;;;11.48;6.03;;;7.00;99.90;;;;;;5068834;28;20075;-76
2021/12/24 03:13:27;;;;;;;11.35;5.38;;;7.00;99.90;;;;;;5067219;28;20032;-79
2021/12/24 03:15:56;;;;;;;13.35;5.20;;;7.00;99.90;;;;;;5067686;28;20044;-76
2021/12/24 03:18:28;;;;;;;7.20;3.50;;;7.00;99.90;;;;;;5067433;28;20031;-76
2021/12/24 03:21:07;;;;;;;6.55;4.13;;;6.90;99.90;;;;;;5068541;28;20276;-75
2021/12/24 03:23:42;;;;;;;8.70;4.85;;;6.90;99.90;;;;;;5068701;28;20180;-77
2021/12/24 03:26:12;;;;;;;6.43;4.68;;;6.80;99.90;;;;;;5068620;28;20432;-76
2021/12/24 03:28:38;;;;;;;12.18;5.35;;;6.80;99.90;;;;;;5067309;28;20025;-77
2021/12/24 03:31:05;;;;;;;12.38;5.15;;;6.90;99.90;;;;;;5068354;28;20036;-78
2021/12/24 03:33:33;;;;;;;15.65;6.20;;;6.90;99.90;;;;;;5067039;28;20032;-78
2021/12/24 03:36:00;;;;;;;13.48;6.47;;;7.00;99.90;;;;;;5068339;28;20060;-80
2021/12/24 03:38:25;;;;;;;6.63;3.88;;;7.00;99.90;;;;;;5068184;28;20360;-79
2021/12/24 03:40:51;;;;;;;9.25;3.72;;;7.00;99.90;;;;;;5068267;28;20037;-78
2021/12/24 03:43:17;;;;;;;8.75;4.60;;;6.90;99.90;;;;;;5066866;28;20045;-76
2021/12/24 03:45:58;;;;;;;8.50;4.45;;;6.90;99.90;;;;;;5067960;28;20028;-76
2021/12/24 03:48:38;;;;;;;12.52;4.63;;;6.90;99.90;;;;;;5067037;28;20056;-75
2021/12/24 03:51:30;;;;;;;7.85;4.68;;;6.90;99.90;;;;;;5068070;28;20107;-76
2021/12/24 03:56:41;;;;;;;8.77;3.75;;;7.00;99.90;;;;;;5067391;28;20036;-77
2021/12/24 03:59:08;;;;;;;9.20;3.90;;;7.10;99.90;;;;;;5068049;28;20024;-78
2021/12/24 04:01:35;;;;;;;15.80;5.03;;;7.20;99.90;;;;;;5068119;28;20021;-77
2021/12/24 04:04:00;;;;;;;13.60;4.57;;;7.20;99.90;;;;;;5068125;28;20024;-77
2021/12/24 04:06:26;;;;;;;13.85;5.97;;;7.30;99.90;;;;;;5067924;28;20031;-78
2021/12/24 04:08:52;;;;;;;18.98;6.30;;;7.30;99.90;;;;;;5067852;28;20044;-75
2021/12/24 04:11:18;;;;;;;11.43;4.80;;;7.40;99.90;;;;;;5067762;28;20017;-77
2021/12/24 04:13:44;;;;;;;9.48;4.57;;;7.40;99.90;;;;;;5049985;28;20128;-78
2021/12/24 04:16:10;;;;;;;13.45;4.20;;;7.30;99.90;;;;;;5067839;28;20039;-76
2021/12/24 04:18:44;;;;;;;11.95;4.97;;;7.30;99.90;;;;;;5067874;28;20036;-77
2021/12/24 04:26:39;;;;;;;17.40;5.03;;;7.10;99.90;;;;;;5067720;28;20556;-76
2021/12/24 04:29:06;;;;;;;11.45;5.65;;;7.20;99.90;;;;;;5068052;28;20123;-77
2021/12/24 04:31:39;;;;;;;12.80;5.18;;;7.20;99.90;;;;;;5067540;28;20025;-77
2021/12/24 04:34:05;;;;;;;7.93;5.00;;;7.20;99.90;;;;;;5067702;28;20438;-76
2021/12/24 05:03:08;;;;;;;9.48;5.22;;;7.00;99.90;;;;;;5067671;28;20043;-76
2021/12/24 05:05:43;;;;;;;17.58;5.57;;;7.00;99.90;;;;;;5065725;28;20476;-78
2021/12/24 05:10:43;;;;;;;9.55;5.00;;;7.00;99.90;;;;;;5067687;28;20478;-76
2021/12/24 05:13:11;;;;;;;13.98;5.63;;;7.00;99.90;;;;;;5067308;28;20041;-76
2021/12/24 05:15:38;;;;;;;9.35;5.15;;;7.00;99.90;;;;;;5067198;28;20032;-75
2021/12/24 05:18:17;;;;;;;8.30;4.55;;;6.80;99.90;;;;;;5065997;28;20039;-76
2021/12/24 05:23:27;;;;;;;13.30;4.78;;;6.70;99.90;;;;;;5067509;28;20090;-77
2021/12/24 05:25:53;;;;;;;9.68;5.25;;;6.70;99.90;;;;;;5067060;28;20041;-77
2021/12/24 05:28:19;;;;;;;16.33;6.43;;;6.70;99.90;;;;;;5067248;28;20082;-77
2021/12/24 05:30:45;;;;;;;;;;;6.70;99.90;;;;;;5066116;28;20040;-76
2021/12/24 05:33:15;;;;;;;14.65;5.93;;;6.70;99.90;;;;;;5067260;28;19908;-75
2021/12/24 05:35:42;;;;;;;12.95;5.82;;;6.70;99.90;;;;;;5067079;28;20388;-77
2021/12/24 05:38:09;;;;;;;16.27;6.15;;;6.70;99.90;;;;;;5070496;28;20028;-76
2021/12/24 05:40:35;;;;;;;;;;;6.70;99.90;;;;;;5070904;28;20467;-76
2021/12/24 05:43:00;;;;;;;10.55;5.82;;;6.70;99.90;;;;;;5069210;28;19920;-76
2021/12/24 05:45:26;;;;;;;12.20;5.85;;;6.70;99.90;;;;;;5070444;28;20028;-76
2021/12/24 05:47:52;;;;;;;13.02;5.80;;;6.70;99.90;;;;;;5070588;28;20032;-78
2021/12/24 05:50:18;;;;;;;14.93;6.07;;;6.70;99.90;;;;;;5052462;28;20074;-76
2021/12/24 05:52:44;;;;;;;17.48;6.90;;;6.70;99.90;;;;;;5070874;28;20031;-77
2021/12/24 05:55:10;;;;;;;15.57;6.85;;;6.70;99.90;;;;;;5069117;28;20038;-75
2021/12/24 05:57:36;;;;;;;18.48;6.60;;;6.70;99.90;;;;;;5069317;28;20038;-76
2021/12/24 06:00:05;;;;;;;22.60;7.40;;;6.70;99.90;;;;;;5070416;28;20029;-76
2021/12/24 06:02:32;;;;;;;17.13;6.88;;;6.70;99.90;;;;;;5070228;28;20107;-76
2021/12/24 06:04:58;;;;;;;15.27;7.32;;;6.80;99.90;;;;;;5069983;28;20049;-76
2021/12/24 06:07:23;;;;;;;16.48;7.65;;;6.90;99.90;;;;;;5069206;28;20062;-76
2021/12/24 06:09:49;;;;;;;19.17;7.53;;;6.90;99.90;;;;;;5068847;28;20035;-77
2021/12/24 06:12:15;;;;;;;22.08;7.35;;;7.00;99.90;;;;;;5068932;28;20102;-78
2021/12/24 06:14:44;;;;;;;18.98;7.18;;;7.10;99.90;;;;;;5068718;28;20088;-76
2021/12/24 06:17:15;;;;;;;17.80;7.85;;;7.20;99.90;;;;;;5068647;28;20044;-75
2021/12/24 06:19:41;;;;;;;20.85;7.50;;;7.20;99.90;;;;;;5069898;28;20367;-77
2021/12/24 06:22:06;;;;;;;19.55;6.63;;;7.30;99.90;;;;;;5069827;28;20039;-76
2021/12/24 06:24:32;;;;;;;16.50;6.75;;;7.30;99.90;;;;;;5068589;28;20039;-77
2021/12/24 06:26:58;;;;;;;21.42;6.28;;;7.40;99.90;;;;;;5068377;28;20422;-76
2021/12/24 06:29:24;;;;;;;10.52;5.88;;;7.40;99.90;;;;;;5069749;28;20062;-77
2021/12/24 06:31:50;;;;;;;18.52;6.57;;;7.40;99.90;;;;;;5068551;28;20028;-76
2021/12/24 06:34:17;;;;;;;16.00;5.78;;;7.40;99.90;;;;;;5069697;28;20043;-77
2021/12/24 06:36:44;;;;;;;22.70;7.38;;;7.40;99.90;;;;;;5069649;28;20059;-77
2021/12/24 06:39:10;;;;;;;17.92;7.03;;;7.40;99.90;;;;;;5068312;28;20028;-77
2021/12/24 06:41:37;;;;;;;10.82;5.35;;;7.50;99.90;;;;;;5069497;28;20025;-75
2021/12/24 06:44:05;;;;;;;9.70;6.35;;;7.50;99.90;;;;;;5068243;28;20056;-77
2021/12/24 06:46:31;;;;;;;21.10;7.85;;;7.50;99.90;;;;;;5068292;28;20044;-75
2021/12/24 06:48:56;;;;;;;;;;;7.50;99.90;;;;;;5068964;28;20024;-75
2021/12/24 06:51:23;;;;;;;11.13;6.70;;;7.50;99.90;;;;;;5069073;28;20282;-78
2021/12/24 06:53:49;;;;;;;16.50;7.13;;;7.60;99.90;;;;;;5067913;28;20025;-76
2021/12/24 06:56:15;;;;;;;18.48;7.18;;;7.70;99.90;;;;;;5069388;28;20035;-76
2021/12/24 06:58:41;;;;;;;15.25;6.85;;;7.70;99.90;;;;;;5069101;28;20407;-76
2021/12/24 07:01:07;;;;;;;22.63;7.70;;;7.70;99.90;;;;;;5068793;28;20059;-76
2021/12/24 07:03:33;;;;;;;14.23;6.63;;;7.80;99.90;;;;;;5068991;28;20044;-76
2021/12/24 07:05:59;;;;;;;13.45;7.05;;;7.80;99.90;;;;;;5068687;28;20052;-75
2021/12/24 07:08:25;;;;;;;16.33;6.72;;;7.90;99.90;;;;;;5068944;28;20028;-74
2021/12/24 07:10:51;;;;;;;14.73;6.63;;;8.00;99.90;;;;;;5051001;28;20028;-76
2021/12/24 07:13:18;;;;;;;18.33;6.35;;;8.00;99.90;;;;;;5067566;28;20029;-75
2021/12/24 07:15:44;;;;;;;16.98;6.65;;;8.00;99.90;;;;;;5068785;28;20033;-78
2021/12/24 07:18:09;;;;;;;16.45;7.38;;;7.90;99.90;;;;;;5067544;28;20082;-75
2021/12/24 07:20:35;;;;;;;19.75;6.97;;;7.90;99.90;;;;;;5068504;28;20036;-77
2021/12/24 07:23:01;;;;;;;15.75;7.18;;;7.90;99.90;;;;;;5068586;28;20028;-77
2021/12/24 07:25:27;;;;;;;21.05;7.05;;;7.90;99.90;;;;;;5067022;28;20028;-76
2021/12/24 07:27:52;;;;;;;14.32;7.05;;;7.90;99.90;;;;;;5050541;28;20549;-75
2021/12/24 07:30:20;;;;;;;20.13;6.38;;;7.80;99.90;;;;;;5050126;28;20021;-79
2021/12/24 07:32:46;;;;;;;18.80;8.45;;;7.80;99.90;;;;;;5068254;28;20028;-78
2021/12/24 07:35:12;;;;;;;25.05;7.03;;;7.80;99.90;;;;;;5067077;28;20041;-78
2021/12/24 07:37:38;;;;;;;13.65;6.78;;;7.90;99.90;;;;;;5067374;28;20045;-78
2021/12/24 07:40:06;;;;;;;18.65;7.10;;;7.80;99.90;;;;;;5068292;28;20021;-76
2021/12/24 07:42:32;;;;;;;18.45;6.88;;;7.90;99.90;;;;;;5068293;28;20028;-79
2021/12/24 07:44:58;;;;;;;15.88;6.40;;;7.90;99.90;;;;;;5068093;28;20033;-77
2021/12/24 07:47:28;;;;;;;9.82;7.03;;;7.90;99.90;;;;;;5068199;28;20259;-76
2021/12/24 07:50:04;;;;;;;17.13;6.32;;;8.00;99.90;;;;;;5068062;28;20246;-77
2021/12/24 07:52:30;;;;;;;13.95;6.90;;;8.10;99.90;;;;;;5066927;28;20020;-78
2021/12/24 07:54:56;;;;;;;;;;;8.20;99.90;;;;;;5068450;28;20035;-78
2021/12/24 07:57:23;;;;;;;17.02;6.35;;;8.30;99.90;;;;;;5066501;28;19904;-76
2021/12/24 07:59:49;;;;;;;12.68;6.38;;;8.40;99.90;;;;;;5067844;28;20057;-75
2021/12/24 08:02:23;;;;;;;15.52;6.45;;;8.40;99.90;;;;;;5066440;28;20111;-75
2021/12/24 08:04:48;;;;;;;15.88;5.97;;;8.40;99.90;;;;;;5065893;28;20068;-75
2021/12/24 08:07:15;;;;;;;23.23;7.50;;;8.40;99.90;;;;;;5067678;28;20031;-75
2021/12/24 08:09:42;;;;;;;13.98;6.30;;;8.50;99.90;;;;;;5067644;28;20024;-76
2021/12/24 08:12:10;;;;;;;26.17;7.50;;;8.60;99.90;;;;;;5066178;28;20017;-77
2021/12/24 08:14:36;;;;;;;22.63;7.43;;;8.70;99.90;;;;;;5067199;28;20074;-77
2021/12/24 08:17:03;;;;;;;20.33;7.63;;;8.80;99.90;;;;;;5066418;28;20494;-77
2021/12/24 08:19:29;;;;;;;19.33;6.20;;;9.00;99.90;;;;;;5049781;28;20052;-78
2021/12/24 08:21:56;;;;;;;25.23;7.05;;;9.00;99.90;;;;;;5067521;28;20297;-77
2021/12/24 08:24:22;;;;;;;26.98;7.60;;;9.10;99.90;;;;;;5067443;28;20024;-76
2021/12/24 08:26:48;;;;;;;20.63;8.20;;;9.20;99.90;;;;;;5066077;28;20038;-76
2021/12/24 08:29:13;;;;;;;20.52;7.13;;;9.20;99.90;;;;;;5067835;28;20041;-77
2021/12/24 08:31:39;;;;;;;22.27;7.75;;;9.20;99.90;;;;;;5067231;28;20021;-75
2021/12/24 08:34:06;;;;;;;29.60;8.20;;;9.30;99.90;;;;;;5067152;28;20047;-78
2021/12/24 08:36:33;;;;;;;19.60;7.13;;;9.30;99.90;;;;;;5067202;28;20069;-77
2021/12/24 08:38:59;;;;;;;23.55;7.25;;;9.40;99.90;;;;;;5065940;28;20035;-75
2021/12/24 08:41:25;;;;;;;17.05;7.43;;;9.40;99.90;;;;;;5067564;28;20029;-76
2021/12/24 08:43:51;;;;;;;22.73;7.18;;;9.50;99.90;;;;;;5066919;28;20063;-76
2021/12/24 08:46:18;;;;;;;35.45;7.85;;;9.50;99.90;;;;;;5067015;28;20447;-76
2021/12/24 08:48:44;;;;;;;23.67;7.80;;;9.50;99.90;;;;;;5066203;28;20033;-77
2021/12/24 08:51:11;;;;;;;26.45;7.35;;;9.60;99.90;;;;;;5066972;28;20073;-76
2021/12/24 08:53:37;;;;;;;18.10;7.05;;;9.60;99.90;;;;;;5066016;28;20447;-77
2021/12/24 08:56:03;;;;;;;31.00;6.60;;;9.60;99.90;;;;;;5065389;28;20421;-76
2021/12/24 08:58:29;;;;;;;27.08;6.72;;;9.60;99.90;;;;;;5065420;28;20048;-77
2021/12/24 09:00:55;;;;;;;19.33;6.05;;;9.60;99.90;;;;;;5066832;28;20016;-76
2021/12/24 09:03:20;;;;;;;18.55;4.35;;;9.60;99.90;;;;;;5065558;28;20577;-77
2021/12/24 09:05:46;;;;;;;11.88;4.60;;;9.70;99.90;;;;;;5066560;28;20041;-76
2021/12/24 09:08:12;;;;;;;12.18;3.92;;;9.80;99.90;;;;;;5066831;28;20042;-76
2021/12/24 09:10:39;;;;;;;18.98;4.55;;;9.90;99.90;;;;;;5065935;28;20031;-79
2021/12/24 09:13:04;;;;;;;15.27;4.35;;;9.90;99.90;;;;;;5070799;28;20032;-77
2021/12/24 09:15:31;;;;;;;20.05;6.00;;;10.00;99.90;;;;;;5070961;28;20108;-78
2021/12/24 09:17:59;;;;;;;24.67;6.93;;;10.00;99.90;;;;;;5070855;28;20101;-76
2021/12/24 09:20:30;;;;;;;23.77;6.95;;;10.00;99.90;;;;;;5070496;28;20047;-78
2021/12/24 09:22:59;;;;;;;21.80;6.68;;;10.00;99.90;;;;;;5070738;28;20104;-75
2021/12/24 09:25:25;;;;;;;24.48;5.95;;;10.00;99.90;;;;;;5068913;28;20039;-77
2021/12/24 09:27:51;;;;;;;;;;;10.00;99.90;;;;;;5071068;28;20043;-78
2021/12/24 09:30:17;;;;;;;27.45;7.05;;;10.00;99.90;;;;;;5070468;28;19912;-78
2021/12/24 09:32:43;;;;;;;23.02;7.22;;;10.00;99.90;;;;;;5069001;28;20535;-78
2021/12/24 09:35:10;;;;;;;;;;;10.00;99.90;;;;;;5071002;28;20118;-75
2021/12/24 09:37:37;;;;;;;22.88;5.55;;;10.00;99.90;;;;;;5068663;28;19927;-75
2021/12/24 09:40:04;;;;;;;28.67;5.78;;;10.00;99.90;;;;;;5069992;28;20040;-78
2021/12/24 09:42:31;;;;;;;21.35;5.80;;;10.10;99.90;;;;;;5070089;28;20043;-76
2021/12/24 09:44:58;;;;;;;30.88;6.82;;;10.10;99.90;;;;;;5068673;28;20039;-78
2021/12/24 09:47:24;;;;;;;19.88;5.20;;;10.20;99.90;;;;;;5068739;28;20115;-76
2021/12/24 09:49:51;;;;;;;19.08;5.53;;;10.20;99.90;;;;;;5068737;28;20387;-76
2021/12/24 09:52:17;;;;;;;;;;;10.30;99.90;;;;;;5069754;28;20098;-78
2021/12/24 09:54:45;;;;;;;14.55;3.70;;;10.40;99.90;;;;;;5069396;28;20359;-76
2021/12/24 09:57:10;;;;;;;23.20;5.10;;;10.50;99.90;;;;;;5068406;28;20113;-79
2021/12/24 09:59:36;;;;;;;14.18;4.82;;;10.50;99.90;;;;;;5069710;28;20024;-78
2021/12/24 10:02:04;;;;;;;24.23;5.22;;;10.50;99.90;;;;;;5069341;28;20040;-78
2021/12/24 10:04:32;;;;;;;23.63;5.95;;;10.60;99.90;;;;;;5051174;28;20053;-75
2021/12/24 10:07:03;;;;;;;20.10;5.65;;;10.60;99.90;;;;;;5069675;28;20052;-77
2021/12/24 10:09:39;;;;;;;25.00;6.18;;;10.70;99.90;;;;;;5067964;28;20047;-77
2021/12/24 10:12:14;;;;;;;17.90;7.03;;;10.70;99.90;;;;;;5069652;28;20012;-77
2021/12/24 10:14:46;;;;;;;20.90;6.40;;;10.80;99.90;;;;;;5069476;28;20028;-77
2021/12/24 10:17:17;;;;;;;21.00;6.65;;;10.80;99.90;;;;;;5069367;28;20227;-76
2021/12/24 10:19:50;;;;;;;24.40;7.03;;;10.80;99.90;;;;;;5069407;28;20048;-76
2021/12/24 10:22:17;;;;;;;17.55;6.65;;;10.80;99.90;;;;;;5067329;28;20060;-78
2021/12/24 10:24:56;;;;;;;16.83;5.97;;;10.80;99.90;;;;;;5068008;28;20025;-76
2021/12/24 10:27:27;;;;;;;23.83;6.95;;;10.70;99.90;;;;;;5068771;28;20025;-76
2021/12/24 10:29:53;;;;;;;32.22;10.20;;;10.70;99.90;;;;;;5070179;28;20147;-76
2021/12/24 10:32:19;;;;;;;24.33;7.07;;;10.80;99.90;;;;;;5068900;28;20473;-76
2021/12/24 10:34:46;;;;;;;16.10;6.18;;;10.80;99.90;;;;;;5069105;28;20043;-77
2021/12/24 10:37:22;;;;;;;20.02;6.13;;;10.90;99.90;;;;;;5070392;28;20116;-76
2021/12/24 10:40:04;;;;;;;22.98;6.82;;;10.90;99.90;;;;;;5071632;28;20096;-76
2021/12/24 10:42:37;;;;;;;14.18;5.93;;;11.00;99.90;;;;;;5091073;28;20037;-77
2021/12/24 10:45:14;;;;;;;21.27;7.05;;;11.00;99.90;;;;;;5068313;28;20021;-76
2021/12/24 10:47:41;;;;;;;20.83;5.97;;;11.10;99.90;;;;;;5065206;28;20523;-76
2021/12/24 10:53:14;;;;;;;15.90;6.40;;;11.20;99.90;;;;;;5067160;28;20067;-76
2021/12/24 10:55:55;;;;;;;19.23;6.10;;;11.20;99.90;;;;;;5067909;28;20115;-77
2021/12/24 10:58:25;;;;;;;19.50;6.22;;;11.20;99.90;;;;;;5069283;28;20016;-75
2021/12/24 11:01:15;;;;;;;22.88;7.07;;;11.30;99.90;;;;;;5050123;28;20036;-75
2021/12/24 11:03:44;;;;;;;22.60;7.97;;;11.30;99.90;;;;;;5068221;28;20028;-75
2021/12/24 11:06:12;;;;;;;22.83;7.68;;;11.30;99.90;;;;;;5069980;28;20575;-76
2021/12/24 11:08:39;;;;;;;24.38;7.75;;;11.30;99.90;;;;;;5070164;28;20481;-74
2021/12/24 11:11:23;;;;;;;22.67;7.05;;;11.30;99.90;;;;;;5069193;28;20032;-76
2021/12/24 11:13:49;;;;;;;22.05;7.40;;;11.30;99.90;;;;;;5065728;28;20067;-75
2021/12/24 11:16:26;;;;;;;18.60;6.93;;;11.40;99.90;;;;;;5067605;28;20517;-74
2021/12/24 11:19:27;;;;;;;21.02;7.30;;;11.40;99.90;;;;;;5067448;28;20029;-75
2021/12/24 11:22:04;;;;;;;18.75;7.65;;;11.40;99.90;;;;;;5047060;28;20040;-76
2021/12/24 11:24:30;;;;;;;16.92;7.15;;;11.40;99.90;;;;;;5069067;28;20110;-76
2021/12/24 11:26:56;;;;;;;;;;;11.40;99.90;;;;;;5051657;28;20110;-75
2021/12/24 11:29:22;;;;;;;18.35;7.47;;;11.40;99.90;;;;;;5068876;28;20369;-74
2021/12/24 11:31:48;;;;;;;17.60;7.45;;;11.30;99.90;;;;;;5068348;28;20103;-76
2021/12/24 11:34:20;;;;;;;24.35;7.82;;;11.30;99.90;;;;;;5068353;28;20039;-75
2021/12/24 11:36:46;;;;;;;19.55;7.65;;;11.30;99.90;;;;;;5067221;28;20130;-75
2021/12/24 11:39:13;;;;;;;12.02;6.88;;;11.20;99.90;;;;;;5067584;28;20415;-73
2021/12/24 11:41:41;;;;;;;15.63;6.43;;;11.20;99.90;;;;;;5068677;28;20464;-75
2021/12/24 11:44:18;;;;;;;17.05;7.13;;;11.20;99.90;;;;;;5068289;28;20024;-74
2021/12/24 11:46:44;;;;;;;19.52;8.02;;;11.20;99.90;;;;;;5068471;28;20494;-77
2021/12/24 11:49:10;;;;;;;19.35;7.97;;;11.10;99.90;;;;;;5064522;28;20493;-77
2021/12/24 11:51:40;;;;;;;27.67;9.10;;;11.10;99.90;;;;;;5068617;28;20029;-77
2021/12/24 11:54:08;;;;;;;29.27;7.38;;;11.10;99.90;;;;;;5069258;28;20029;-75
2021/12/24 11:56:55;;;;;;;17.20;7.30;;;11.10;99.90;;;;;;5067492;28;20028;-75
2021/12/24 11:59:40;;;;;;;25.15;7.28;;;11.10;99.90;;;;;;5067096;28;20702;-76
2021/12/24 12:02:35;;;;;;;20.45;8.20;;;11.10;99.90;;;;;;5067783;28;20048;-69
2021/12/24 12:05:16;;;;;;;27.48;8.10;;;11.10;99.90;;;;;;5065505;28;20041;-75
2021/12/24 12:07:42;;;;;;;16.08;8.60;;;11.20;99.90;;;;;;5068066;28;20016;-76
2021/12/24 12:10:09;;;;;;;14.73;7.70;;;11.20;99.90;;;;;;5067580;28;20088;-75
2021/12/24 12:12:38;;;;;;;10.15;6.00;;;11.20;99.90;;;;;;5068273;28;20029;-75
2021/12/24 12:15:30;;;;;;;18.15;5.88;;;11.20;99.90;;;;;;5067048;28;20398;-77
2021/12/24 12:18:04;;;;;;;14.98;5.68;;;11.20;99.90;;;;;;5066909;28;20025;-75
2021/12/24 12:20:56;;;;;;;10.18;5.47;;;11.20;99.90;;;;;;5067123;28;20036;-78
2021/12/24 12:26:46;;;;;;;13.32;6.40;;;11.10;99.90;;;;;;5066993;28;20746;-77
2021/12/24 12:29:29;;;;;;;13.18;6.30;;;11.10;99.90;;;;;;5068908;28;20036;-76
2021/12/24 12:31:55;;;;;;;15.00;6.70;;;11.10;99.90;;;;;;5069498;28;20082;-76
2021/12/24 12:34:38;;;;;;;21.38;7.55;;;11.20;99.90;;;;;;5067983;28;20366;-76
2021/12/24 12:37:24;;;;;;;22.02;7.68;;;11.20;99.90;;;;;;5068718;28;20032;-75
2021/12/24 12:40:12;;;;;;;17.35;7.55;;;11.20;99.90;;;;;;5067225;28;20028;-77
2021/12/24 12:45:20;;;;;;;16.55;7.90;;;11.20;99.90;;;;;;5068583;28;20020;-79
2021/12/24 12:47:58;;;;;;;15.07;6.65;;;11.20;99.90;;;;;;5071569;28;20024;-75
2021/12/24 12:50:26;;;;;;;10.93;6.18;;;11.20;99.90;;;;;;5068503;28;20040;-80
2021/12/24 12:53:29;;;;;;;14.27;8.00;;;11.10;99.90;;;;;;5071024;28;20467;-77
2021/12/24 12:56:26;;;;;;;17.08;8.38;;;11.10;99.90;;;;;;5071214;28;20107;-79
2021/12/24 12:59:06;;;;;;;9.85;6.35;;;11.10;99.90;;;;;;5051478;28;20073;-78
2021/12/24 13:01:33;;;;;;;13.10;5.68;;;11.10;99.90;;;;;;5052244;28;20474;-79
2021/12/24 13:04:03;;;;;;;11.07;7.38;;;11.10;99.90;;;;;;5071195;28;20024;-79
2021/12/24 13:06:41;;;;;;;13.98;7.80;;;11.10;99.90;;;;;;5071021;28;20115;-78
2021/12/24 13:09:12;;;;;;;11.32;5.55;;;11.20;99.90;;;;;;5072464;28;20403;-78
2021/12/24 13:11:44;;;;;;;17.35;6.50;;;11.20;99.90;;;;;;5071595;28;20542;-76
2021/12/24 13:14:11;;;;;;;13.90;5.72;;;11.30;99.90;;;;;;5071039;28;20024;-77
2021/12/24 13:16:45;;;;;;;9.93;5.20;;;11.30;99.90;;;;;;5071493;28;20032;-76
2021/12/24 13:24:53;;;;;;;8.50;5.70;;;11.50;99.90;;;;;;5056832;28;20027;-75
2021/12/24 13:27:24;;;;;;;11.52;5.45;;;11.60;99.90;;;;;;5071251;28;20028;-77
2021/12/24 13:30:02;;;;;;;10.27;4.57;;;11.60;99.90;;;;;;5071456;28;20043;-77
2021/12/24 13:32:28;;;;;;;9.07;4.00;;;11.60;99.90;;;;;;5070046;28;20017;-75
2021/12/24 13:34:57;;;;;;;13.13;4.90;;;11.60;99.90;;;;;;5070028;28;20051;-75
2021/12/24 13:37:29;;;;;;;11.02;4.75;;;11.70;99.90;;;;;;5071286;28;20056;-77
2021/12/24 13:40:07;;;;;;;9.52;4.90;;;11.60;99.90;;;;;;5074024;28;20127;-75
2021/12/24 13:42:57;;;;;;;11.52;4.57;;;11.70;99.90;;;;;;5070285;28;20082;-76
2021/12/24 13:45:27;;;;;;;9.48;4.10;;;11.60;99.90;;;;;;5069153;28;20608;-75
2021/12/24 13:48:08;;;;;;;9.70;4.40;;;11.60;99.90;;;;;;5053026;28;20111;-76
2021/12/24 13:56:05;;;;;;;5.95;3.90;;;11.50;99.90;;;;;;5071502;28;20771;-78
2021/12/24 13:58:33;;;;;;;;;;;11.50;99.90;;;;;;5071117;28;20611;-77
2021/12/24 14:01:02;;;;;;;12.40;4.60;;;11.50;99.90;;;;;;5069513;28;19923;-76
2021/12/24 14:03:33;;;;;;;13.75;4.75;;;11.60;99.90;;;;;;5069437;28;20059;-79
2021/12/24 14:06:04;;;;;;;15.27;5.10;;;11.50;99.90;;;;;;5071277;28;20041;-79
2021/12/24 14:08:39;;;;;;;11.68;5.03;;;11.50;99.90;;;;;;5063420;28;20109;-79
2021/12/24 14:11:08;;;;;;;7.72;5.22;;;11.50;99.90;;;;;;5071393;28;20021;-78
2021/12/24 14:14:04;;;;;;;9.25;5.70;;;11.50;99.90;;;;;;5070964;28;20028;-78
2021/12/24 14:16:41;;;;;;;13.07;5.45;;;11.60;99.90;;;;;;5066468;28;20021;-77
2021/12/24 14:19:28;;;;;;;7.13;4.65;;;11.50;99.90;;;;;;5069705;28;20032;-78
2021/12/24 14:22:09;;;;;;;9.85;5.47;;;11.50;99.90;;;;;;5070398;28;20025;-73
2021/12/24 14:24:36;;;;;;;10.52;6.05;;;11.50;99.90;;;;;;5070918;28;20442;-77
2021/12/24 14:27:11;;;;;;;10.27;5.80;;;11.60;99.90;;;;;;5071006;28;20021;-77
2021/12/24 14:29:54;;;;;;;9.52;5.97;;;11.50;99.90;;;;;;5068641;28;20152;-75
2021/12/24 14:32:43;;;;;;;18.52;6.90;;;11.50;99.90;;;;;;5070031;28;20065;-76
2021/12/24 14:35:19;;;;;;;10.07;6.38;;;11.60;99.90;;;;;;5070505;28;20414;-74
2021/12/24 14:37:55;;;;;;;11.52;7.05;;;11.60;99.90;;;;;;5069461;28;20032;-75
2021/12/24 14:40:21;;;;;;;18.05;6.15;;;11.60;99.90;;;;;;5068856;28;20033;-76
2021/12/24 14:42:52;;;;;;;8.13;6.00;;;11.60;99.90;;;;;;5065742;28;20439;-76
2021/12/24 14:45:25;;;;;;;12.32;6.88;;;11.60;99.90;;;;;;5066086;28;20059;-74
2021/12/24 14:48:17;;;;;;;9.45;5.85;;;11.60;99.90;;;;;;5065039;28;20119;-77
2021/12/24 14:50:56;;;;;;;7.10;4.57;;;11.60;99.90;;;;;;5062573;28;20475;-74
2021/12/24 14:53:31;;;;;;;8.13;4.50;;;11.60;99.90;;;;;;5062832;28;20025;-75
2021/12/24 14:56:08;;;;;;;5.03;3.47;;;11.60;99.90;;;;;;5064447;28;20428;-74
2021/12/24 14:58:36;;;;;;;4.22;3.75;;;11.50;99.90;;;;;;5064581;28;20028;-75
2021/12/24 15:01:06;;;;;;;8.00;3.80;;;11.60;99.90;;;;;;5062477;28;20028;-76